Time;durP1;ratioP1;P1;durP2;ratioP2;P2;SDS_P1;SDS_P2;PMS_P1;PMS_P2;Temp;Humidity;BMP_temperature;BMP_pressure;BME280_temperature;BME280_humidity;BME280_pressure;Samples;Min_cycle;Max_cycle;Signal;HPM_P1;HPM_P2
2022/10/01 00:00:25;;;;;;;6.77;5.00;;;;;;;;;;5055988;28;20210;-68
2022/10/01 00:02:53;;;;;;;7.37;5.70;;;;;;;;;;5055691;28;20185;-67
2022/10/01 00:05:19;;;;;;;8.37;6.50;;;;;;;;;;5055721;28;20175;-68
2022/10/01 00:07:45;;;;;;;7.60;6.40;;;;;;;;;;5037780;28;20240;-67
2022/10/01 00:10:12;;;;;;;7.13;6.43;;;;;;;;;;5055374;28;20179;-67
2022/10/01 00:12:39;;;;;;;8.00;6.40;;;;;;;;;;5055170;28;20198;-67
2022/10/01 00:15:08;;;;;;;10.83;6.63;;;;;;;;;;5037782;28;20182;-67
2022/10/01 00:17:34;;;;;;;11.57;8.10;;;;;;;;;;5037899;28;20179;-67
2022/10/01 00:20:01;;;;;;;10.60;7.10;;;;;;;;;;5055673;28;20229;-67
2022/10/01 00:22:27;;;;;;;11.13;8.30;;;;;;;;;;5055698;28;20201;-67
2022/10/01 00:24:53;;;;;;;11.07;8.90;;;;;;;;;;5055504;28;20647;-67
2022/10/01 00:27:19;;;;;;;9.67;8.67;;;;;;;;;;5055456;28;20185;-67
2022/10/01 00:29:45;;;;;;;11.70;8.33;;;;;;;;;;5037261;28;20222;-67
2022/10/01 00:32:10;;;;;;;9.87;8.83;;;;;;;;;;5037182;28;20301;-67
2022/10/01 00:34:36;;;;;;;9.63;8.60;;;;;;;;;;5055482;28;20215;-67
2022/10/01 00:37:03;;;;;;;10.27;8.90;;;;;;;;;;5037158;28;20179;-67
2022/10/01 00:39:29;;;;;;;12.23;9.60;;;;;;;;;;5055476;28;20186;-67
2022/10/01 00:41:55;;;;;;;11.37;10.17;;;;;;;;;;5037086;28;20206;-67
2022/10/01 00:44:39;;;;;;;14.53;9.83;;;;;;;;;;5054940;28;20175;-65
2022/10/01 00:47:25;;;;;;;11.80;9.93;;;;;;;;;;5055027;28;20170;-67
2022/10/01 00:49:54;;;;;;;10.80;9.80;;;;;;;;;;5037206;28;20285;-68
2022/10/01 00:52:22;;;;;;;9.33;8.43;;;;;;;;;;5036929;28;20217;-68
2022/10/01 00:54:50;;;;;;;11.20;9.90;;;;;;;;;;5055345;28;20191;-67
2022/10/01 00:57:18;;;;;;;11.67;8.83;;;;;;;;;;5055024;28;20312;-67
2022/10/01 00:59:44;;;;;;;11.00;9.47;;;;;;;;;;5036859;28;20558;-66
2022/10/01 01:02:10;;;;;;;11.17;9.10;;;;;;;;;;5036955;28;20190;-70
2022/10/01 01:04:38;;;;;;;12.07;9.20;;;;;;;;;;5036773;28;20265;-69
2022/10/01 01:07:05;;;;;;;11.53;9.50;;;;;;;;;;5054529;28;20177;-68
2022/10/01 01:09:40;;;;;;;10.80;9.10;;;;;;;;;;5054576;28;20174;-69
2022/10/01 01:12:05;;;;;;;13.70;10.20;;;;;;;;;;5036287;28;20607;-70
2022/10/01 01:14:53;;;;;;;10.97;9.37;;;;;;;;;;5036555;28;20174;-69
2022/10/01 01:17:23;;;;;;;10.43;9.03;;;;;;;;;;5054613;28;20262;-69
2022/10/01 01:20:01;;;;;;;11.43;9.30;;;;;;;;;;5054447;28;20159;-67
2022/10/01 01:22:31;;;;;;;10.40;9.17;;;;;;;;;;5036093;28;20690;-67
2022/10/01 01:25:15;;;;;;;10.30;9.23;;;;;;;;;;5035424;28;20182;-69
2022/10/01 01:28:01;;;;;;;10.57;9.30;;;;;;;;;;5036152;28;20236;-67
2022/10/01 01:30:29;;;;;;;10.97;8.87;;;;;;;;;;5053548;28;20194;-67
2022/10/01 01:33:01;;;;;;;12.57;8.13;;;;;;;;;;5036060;28;20210;-67
2022/10/01 01:35:33;;;;;;;9.37;7.83;;;;;;;;;;5035918;28;20171;-69
2022/10/01 01:38:05;;;;;;;12.93;8.33;;;;;;;;;;5054254;28;20166;-69
2022/10/01 01:40:35;;;;;;;9.20;7.60;;;;;;;;;;5053743;28;20194;-68
2022/10/01 01:43:04;;;;;;;8.13;7.33;;;;;;;;;;5054187;28;20171;-69
2022/10/01 01:45:32;;;;;;;11.60;8.47;;;;;;;;;;5053737;28;20171;-68
2022/10/01 01:47:59;;;;;;;9.80;7.77;;;;;;;;;;5036174;28;20533;-69
2022/10/01 01:50:27;;;;;;;9.47;6.90;;;;;;;;;;5053675;28;20186;-68
2022/10/01 01:52:54;;;;;;;10.33;7.67;;;;;;;;;;5035699;28;20657;-69
2022/10/01 01:55:23;;;;;;;11.07;8.30;;;;;;;;;;5035784;28;20205;-69
2022/10/01 01:57:50;;;;;;;10.40;8.73;;;;;;;;;;5053751;28;20190;-68
2022/10/01 02:00:16;;;;;;;17.57;9.37;;;;;;;;;;5053805;28;20204;-66
2022/10/01 02:02:48;;;;;;;11.30;9.03;;;;;;;;;;5035546;28;20268;-66
2022/10/01 02:05:17;;;;;;;9.37;8.43;;;;;;;;;;5035559;28;20188;-69
2022/10/01 02:08:02;;;;;;;10.60;8.50;;;;;;;;;;5053753;28;20181;-62
2022/10/01 02:10:36;;;;;;;10.30;7.97;;;;;;;;;;5053335;28;20197;-65
2022/10/01 02:13:02;;;;;;;10.23;7.90;;;;;;;;;;5053293;28;20191;-65
2022/10/01 02:15:54;;;;;;;9.80;8.33;;;;;;;;;;5053289;28;20175;-65
2022/10/01 02:18:39;;;;;;;10.63;8.13;;;;;;;;;;5053523;28;20550;-65
2022/10/01 02:21:16;;;;;;;13.20;9.63;;;;;;;;;;5035225;28;20235;-65
2022/10/01 02:23:46;;;;;;;11.40;8.63;;;;;;;;;;5035514;28;20184;-65
2022/10/01 02:26:15;;;;;;;12.97;9.83;;;;;;;;;;5053206;28;20654;-65
2022/10/01 02:28:42;;;;;;;14.77;10.73;;;;;;;;;;5035164;28;20269;-65
2022/10/01 02:31:09;;;;;;;11.30;10.20;;;;;;;;;;5035082;28;20213;-65
2022/10/01 02:33:35;;;;;;;11.60;10.40;;;;;;;;;;5052960;28;20178;-67
2022/10/01 02:36:04;;;;;;;12.80;11.30;;;;;;;;;;5055965;28;20209;-65
2022/10/01 02:38:31;;;;;;;15.43;11.37;;;;;;;;;;5059543;28;20596;-65
2022/10/01 02:40:59;;;;;;;13.47;11.13;;;;;;;;;;5059557;28;20689;-65
2022/10/01 02:43:31;;;;;;;18.73;12.20;;;;;;;;;;5041897;28;20178;-65
2022/10/01 02:46:01;;;;;;;16.97;11.67;;;;;;;;;;5060180;28;20196;-65
2022/10/01 02:48:27;;;;;;;13.97;11.37;;;;;;;;;;5060129;28;20174;-65
2022/10/01 02:50:57;;;;;;;18.47;12.27;;;;;;;;;;5041522;28;20198;-65
2022/10/01 02:53:27;;;;;;;14.97;11.90;;;;;;;;;;5059443;28;20559;-65
2022/10/01 02:55:53;;;;;;;15.87;12.50;;;;;;;;;;5059768;28;20197;-65
2022/10/01 02:58:19;;;;;;;16.10;13.67;;;;;;;;;;5059870;28;20557;-65
2022/10/01 03:00:45;;;;;;;19.03;13.97;;;;;;;;;;5059399;28;20613;-65
2022/10/01 03:03:11;;;;;;;19.43;15.07;;;;;;;;;;5059386;28;20256;-65
2022/10/01 03:05:37;;;;;;;17.97;14.37;;;;;;;;;;5059319;28;20188;-65
2022/10/01 03:08:03;;;;;;;18.43;14.03;;;;;;;;;;5059657;28;20228;-65
2022/10/01 03:10:29;;;;;;;19.63;15.43;;;;;;;;;;5059195;28;20239;-65
2022/10/01 03:12:55;;;;;;;22.10;14.80;;;;;;;;;;5059673;28;20551;-65
2022/10/01 03:15:21;;;;;;;20.73;16.83;;;;;;;;;;5059940;28;20204;-66
2022/10/01 03:17:51;;;;;;;21.10;17.30;;;;;;;;;;5059507;28;20209;-66
2022/10/01 03:20:17;;;;;;;23.10;17.50;;;;;;;;;;5059161;28;20643;-65
2022/10/01 03:22:46;;;;;;;21.07;17.17;;;;;;;;;;5059553;28;20179;-65
2022/10/01 03:25:13;;;;;;;20.93;17.23;;;;;;;;;;5059600;28;20174;-66
2022/10/01 03:27:39;;;;;;;23.97;17.53;;;;;;;;;;5060289;28;20178;-66
2022/10/01 03:30:05;;;;;;;21.83;15.70;;;;;;;;;;5059328;28;20269;-66
2022/10/01 03:32:31;;;;;;;21.57;15.07;;;;;;;;;;5070408;22;20264;-69
2022/10/01 03:34:58;;;;;;;17.47;13.70;;;;;;;;;;5039492;28;20164;-69
2022/10/01 03:37:24;;;;;;;14.67;12.93;;;;;;;;;;5039319;28;20175;-68
2022/10/01 03:39:50;;;;;;;17.47;13.27;;;;;;;;;;5039636;28;20237;-68
2022/10/01 03:42:16;;;;;;;17.07;11.57;;;;;;;;;;5021567;28;20204;-67
2022/10/01 03:44:42;;;;;;;16.90;11.17;;;;;;;;;;5021677;28;20205;-69
2022/10/01 03:47:08;;;;;;;15.53;10.77;;;;;;;;;;5037599;28;20214;-68
2022/10/01 03:49:34;;;;;;;13.23;10.37;;;;;;;;;;5036340;28;20179;-69
2022/10/01 03:52:01;;;;;;;11.93;9.70;;;;;;;;;;5036272;28;20210;-69
2022/10/01 03:54:29;;;;;;;14.93;10.10;;;;;;;;;;5018564;28;20195;-68
2022/10/01 03:56:55;;;;;;;14.40;9.87;;;;;;;;;;5018355;28;20607;-69
2022/10/01 03:59:21;;;;;;;14.30;10.43;;;;;;;;;;5018251;28;20218;-68
2022/10/01 04:01:47;;;;;;;15.80;9.83;;;;;;;;;;5036115;28;20179;-68
2022/10/01 04:04:13;;;;;;;13.53;10.37;;;;;;;;;;5035855;28;20683;-68
2022/10/01 04:06:39;;;;;;;16.67;10.90;;;;;;;;;;5018127;28;20186;-68
2022/10/01 04:09:06;;;;;;;15.07;10.07;;;;;;;;;;5035757;28;20257;-68
2022/10/01 04:11:32;;;;;;;13.43;11.10;;;;;;;;;;5017885;28;20249;-67
2022/10/01 04:13:57;;;;;;;15.23;10.77;;;;;;;;;;5035873;28;20195;-68
2022/10/01 04:16:24;;;;;;;16.13;10.87;;;;;;;;;;5036027;28;20254;-67
2022/10/01 04:18:50;;;;;;;16.03;10.53;;;;;;;;;;5035609;28;20257;-67
2022/10/01 04:21:16;;;;;;;14.43;10.90;;;;;;;;;;5017890;28;20179;-67
2022/10/01 04:23:42;;;;;;;16.00;11.33;;;;;;;;;;5035489;28;20698;-67
2022/10/01 04:26:08;;;;;;;15.67;9.93;;;;;;;;;;5035763;28;20179;-67
2022/10/01 04:28:34;;;;;;;12.60;10.70;;;;;;;;;;5035684;28;20191;-67
2022/10/01 04:33:45;;;;;;;11.10;9.07;;;;;;;;;;5037600;28;20220;-68
2022/10/01 04:36:11;;;;;;;10.33;7.93;;;;;;;;;;5020060;28;20629;-67
2022/10/01 04:38:37;;;;;;;11.77;8.37;;;;;;;;;;5038030;28;20185;-68
2022/10/01 04:41:03;;;;;;;12.80;8.50;;;;;;;;;;5035558;28;20182;-67
2022/10/01 04:43:29;;;;;;;9.17;7.63;;;;;;;;;;5035425;28;20650;-68
2022/10/01 04:45:55;;;;;;;6.40;5.60;;;;;;;;;;5035577;28;20181;-67
2022/10/01 04:48:21;;;;;;;7.57;5.83;;;;;;;;;;5017448;28;20600;-67
2022/10/01 04:50:47;;;;;;;7.13;5.70;;;;;;;;;;5017718;28;20179;-68
2022/10/01 04:53:13;;;;;;;7.50;5.80;;;;;;;;;;5035138;28;20215;-68
2022/10/01 04:55:39;;;;;;;7.73;5.30;;;;;;;;;;5035588;28;20549;-69
2022/10/01 04:58:05;;;;;;;5.23;4.73;;;;;;;;;;5034995;28;20552;-69
2022/10/01 05:00:31;;;;;;;5.57;4.40;;;;;;;;;;5017226;28;20194;-68
2022/10/01 05:02:57;;;;;;;4.80;4.40;;;;;;;;;;5016979;28;20638;-68
2022/10/01 05:05:26;;;;;;;6.33;4.80;;;;;;;;;;5035078;28;20176;-68
2022/10/01 05:07:51;;;;;;;6.00;4.60;;;;;;;;;;5035005;28;20182;-68
2022/10/01 05:10:20;;;;;;;5.60;4.87;;;;;;;;;;5035052;28;20183;-69
2022/10/01 05:12:46;;;;;;;5.20;4.70;;;;;;;;;;5016938;28;20226;-68
2022/10/01 05:15:13;;;;;;;5.50;5.00;;;;;;;;;;5016869;28;20183;-69
2022/10/01 05:17:39;;;;;;;9.30;6.00;;;;;;;;;;5016869;28;20722;-68
2022/10/01 05:20:06;;;;;;;7.23;5.53;;;;;;;;;;5034676;28;20213;-68
2022/10/01 05:22:32;;;;;;;7.20;6.03;;;;;;;;;;5016929;28;20218;-68
2022/10/01 05:24:59;;;;;;;7.43;6.10;;;;;;;;;;5034428;28;20183;-68
2022/10/01 05:27:25;;;;;;;5.50;5.00;;;;;;;;;;5034908;28;20179;-68
2022/10/01 05:29:52;;;;;;;4.40;4.00;;;;;;;;;;5034653;28;20203;-68
2022/10/01 05:32:18;;;;;;;6.10;3.57;;;;;;;;;;5034016;28;20257;-68
2022/10/01 05:34:44;;;;;;;4.50;2.80;;;;;;;;;;5034604;28;20163;-68
2022/10/01 05:37:10;;;;;;;3.50;2.10;;;;;;;;;;5034096;28;20183;-68
2022/10/01 05:39:36;;;;;;;1.73;1.63;;;;;;;;;;5034332;28;20179;-68
2022/10/01 05:42:03;;;;;;;2.40;1.93;;;;;;;;;;5016156;28;20258;-68
2022/10/01 05:44:36;;;;;;;1.73;1.63;;;;;;;;;;5033936;28;20731;-68
2022/10/01 05:47:02;;;;;;;2.40;1.50;;;;;;;;;;5034210;28;20156;-68
2022/10/01 05:49:28;;;;;;;2.87;1.30;;;;;;;;;;5016085;28;20260;-68
2022/10/01 05:51:54;;;;;;;1.50;1.40;;;;;;;;;;5033587;28;20234;-68
2022/10/01 05:54:22;;;;;;;1.97;1.47;;;;;;;;;;5033772;28;20268;-68
2022/10/01 05:56:47;;;;;;;1.30;1.20;;;;;;;;;;5033738;28;20190;-68
2022/10/01 05:59:13;;;;;;;3.13;1.23;;;;;;;;;;5034192;28;20644;-68
2022/10/01 06:01:39;;;;;;;1.10;1.10;;;;;;;;;;5033571;28;20216;-68
2022/10/01 06:04:05;;;;;;;1.23;1.13;;;;;;;;;;5033578;28;20618;-69
2022/10/01 06:06:31;;;;;;;3.10;1.40;;;;;;;;;;5033555;28;20183;-68
2022/10/01 06:08:58;;;;;;;1.30;1.20;;;;;;;;;;5033550;28;20181;-68
2022/10/01 06:11:25;;;;;;;1.00;1.00;;;;;;;;;;5033173;28;20289;-68
2022/10/01 06:13:52;;;;;;;0.90;0.90;;;;;;;;;;5033406;28;20281;-68
2022/10/01 06:16:19;;;;;;;1.07;1.07;;;;;;;;;;5015891;28;20225;-68
2022/10/01 06:18:46;;;;;;;2.10;1.10;;;;;;;;;;5033235;28;20262;-68
2022/10/01 06:21:12;;;;;;;1.37;1.20;;;;;;;;;;5033432;28;20207;-67
2022/10/01 06:23:38;;;;;;;3.00;2.70;;;;;;;;;;5015519;28;20227;-68
2022/10/01 06:26:04;;;;;;;6.97;6.27;;;;;;;;;;5015594;28;20179;-68
2022/10/01 06:28:30;;;;;;;1.60;1.50;;;;;;;;;;5015715;28;20175;-68
2022/10/01 06:30:56;;;;;;;2.73;1.60;;;;;;;;;;5033334;28;20658;-68
2022/10/01 06:33:23;;;;;;;1.83;1.70;;;;;;;;;;5015444;28;20215;-69
2022/10/01 06:35:50;;;;;;;3.33;2.97;;;;;;;;;;5033249;28;20186;-68
2022/10/01 06:38:18;;;;;;;1.70;1.60;;;;;;;;;;5033653;28;20257;-68
2022/10/01 06:40:44;;;;;;;1.10;1.10;;;;;;;;;;5033171;28;20178;-68
2022/10/01 06:43:10;;;;;;;1.53;1.30;;;;;;;;;;5033234;28;20575;-69
2022/10/01 06:45:37;;;;;;;1.80;1.70;;;;;;;;;;5033137;28;20229;-68
2022/10/01 06:48:03;;;;;;;2.03;1.77;;;;;;;;;;5033117;28;20202;-68
2022/10/01 06:50:32;;;;;;;1.83;1.50;;;;;;;;;;5033098;28;20643;-68
2022/10/01 06:52:58;;;;;;;2.83;2.47;;;;;;;;;;5033311;28;20210;-68
2022/10/01 06:55:26;;;;;;;6.23;5.73;;;;;;;;;;5033126;28;20612;-68
2022/10/01 06:57:57;;;;;;;5.20;4.47;;;;;;;;;;5033091;28;20167;-68
2022/10/01 07:00:23;;;;;;;2.77;2.53;;;;;;;;;;5032892;28;20666;-68
2022/10/01 07:02:49;;;;;;;6.00;5.40;;;;;;;;;;5032742;28;20238;-68
2022/10/01 07:05:15;;;;;;;3.20;2.90;;;;;;;;;;5032894;28;20187;-68
2022/10/01 07:07:43;;;;;;;2.73;2.10;;;;;;;;;;5015069;28;20179;-68
2022/10/01 07:10:10;;;;;;;3.87;3.50;;;;;;;;;;5032860;28;20186;-68
2022/10/01 07:12:36;;;;;;;3.10;2.10;;;;;;;;;;5015213;28;20218;-67
2022/10/01 07:15:04;;;;;;;1.50;1.40;;;;;;;;;;5032762;28;20175;-67
2022/10/01 07:17:29;;;;;;;1.60;1.40;;;;;;;;;;5032795;28;20258;-67
2022/10/01 07:19:55;;;;;;;1.50;1.40;;;;;;;;;;5014962;28;20199;-67
2022/10/01 07:22:23;;;;;;;2.60;1.70;;;;;;;;;;5033067;28;20261;-67
2022/10/01 07:24:49;;;;;;;3.07;2.03;;;;;;;;;;5018866;28;20187;-67
2022/10/01 07:27:15;;;;;;;3.20;2.43;;;;;;;;;;5036897;28;20205;-67
2022/10/01 07:29:41;;;;;;;3.20;2.23;;;;;;;;;;5018701;28;20187;-68
2022/10/01 07:32:09;;;;;;;3.10;2.50;;;;;;;;;;5018739;28;20195;-67
2022/10/01 07:34:35;;;;;;;3.37;2.40;;;;;;;;;;5019087;28;20647;-67
2022/10/01 07:37:02;;;;;;;4.27;2.23;;;;;;;;;;5036919;28;20171;-68
2022/10/01 07:39:28;;;;;;;3.20;2.00;;;;;;;;;;5037105;28;20262;-68
2022/10/01 07:41:54;;;;;;;3.23;2.10;;;;;;;;;;5038025;28;20214;-66
2022/10/01 07:44:20;;;;;;;4.70;1.80;;;;;;;;;;5037681;28;20628;-67
2022/10/01 07:46:47;;;;;;;2.33;2.13;;;;;;;;;;5037850;28;20183;-67
2022/10/01 07:49:13;;;;;;;2.70;2.10;;;;;;;;;;5020407;28;20194;-67
2022/10/01 07:51:42;;;;;;;2.13;2.03;;;;;;;;;;5037308;28;20260;-68
2022/10/01 07:54:08;;;;;;;3.33;1.93;;;;;;;;;;5036443;28;20203;-68
2022/10/01 07:56:34;;;;;;;4.57;2.30;;;;;;;;;;5018422;28;20185;-68
2022/10/01 07:59:00;;;;;;;1.80;1.70;;;;;;;;;;5018283;28;20175;-67
2022/10/01 08:01:27;;;;;;;2.20;1.90;;;;;;;;;;5038097;28;20237;-68
2022/10/01 08:03:53;;;;;;;3.53;2.67;;;;;;;;;;5022005;28;20233;-68
2022/10/01 08:06:19;;;;;;;4.73;1.97;;;;;;;;;;5039876;28;20175;-68
2022/10/01 08:08:45;;;;;;;5.20;4.20;;;;;;;;;;5039935;28;20178;-68
2022/10/01 08:11:13;;;;;;;2.57;2.33;;;;;;;;;;5038034;28;20628;-68
2022/10/01 08:13:39;;;;;;;2.97;2.00;;;;;;;;;;5035707;28;20199;-68
2022/10/01 08:16:08;;;;;;;4.27;3.60;;;;;;;;;;5018119;28;20214;-68
2022/10/01 08:18:34;;;;;;;3.50;3.00;;;;;;;;;;5036039;28;20262;-69
2022/10/01 08:21:03;;;;;;;2.70;2.27;;;;;;;;;;5035661;28;20212;-68
2022/10/01 08:23:31;;;;;;;3.60;2.77;;;;;;;;;;5035497;28;20268;-68
2022/10/01 08:26:01;;;;;;;2.30;2.07;;;;;;;;;;5017957;28;20186;-69
2022/10/01 08:28:28;;;;;;;3.57;2.33;;;;;;;;;;5035611;28;20179;-68
2022/10/01 08:30:55;;;;;;;3.43;2.77;;;;;;;;;;5035320;28;20175;-68
2022/10/01 08:33:21;;;;;;;4.00;2.30;;;;;;;;;;5016643;28;20222;-68
2022/10/01 08:35:47;;;;;;;2.77;2.57;;;;;;;;;;5035500;28;20199;-68
2022/10/01 08:38:13;;;;;;;3.90;2.40;;;;;;;;;;5017370;28;20602;-68
2022/10/01 08:40:50;;;;;;;5.23;3.33;;;;;;;;;;5017481;28;20187;-68
2022/10/01 08:43:30;;;;;;;3.70;2.40;;;;;;;;;;5034952;28;20206;-70
2022/10/01 08:45:58;;;;;;;4.70;4.07;;;;;;;;;;5034821;28;20206;-67
2022/10/01 08:48:36;;;;;;;5.50;2.67;;;;;;;;;;5017126;28;20183;-67
2022/10/01 08:51:16;;;;;;;3.20;2.80;;;;;;;;;;5017351;28;20639;-67
2022/10/01 08:53:48;;;;;;;5.20;2.57;;;;;;;;;;5035235;28;20248;-67
2022/10/01 08:56:19;;;;;;;2.70;2.20;;;;;;;;;;5035046;28;20210;-67
2022/10/01 08:58:47;;;;;;;5.40;2.57;;;;;;;;;;5034911;28;20585;-70
2022/10/01 09:01:13;;;;;;;3.80;2.50;;;;;;;;;;5016865;28;20176;-70
2022/10/01 09:03:40;;;;;;;3.10;2.43;;;;;;;;;;5034382;28;20206;-68
2022/10/01 09:06:16;;;;;;;5.07;2.77;;;;;;;;;;5034900;28;20175;-69
2022/10/01 09:08:45;;;;;;;5.80;4.10;;;;;;;;;;5016827;28;20202;-70
2022/10/01 09:11:20;;;;;;;5.93;3.37;;;;;;;;;;5016716;28;20270;-70
2022/10/01 09:13:56;;;;;;;3.83;3.23;;;;;;;;;;5034322;28;20566;-69
2022/10/01 09:16:45;;;;;;;3.93;3.40;;;;;;;;;;5034784;28;20199;-68
2022/10/01 09:19:30;;;;;;;7.63;3.70;;;;;;;;;;5006526;28;20194;-68
2022/10/01 09:21:57;;;;;;;7.77;4.03;;;;;;;;;;5034521;28;20160;-69
2022/10/01 09:24:42;;;;;;;6.80;3.60;;;;;;;;;;5034201;28;20179;-68
2022/10/01 09:27:15;;;;;;;6.77;4.23;;;;;;;;;;5034428;28;20175;-69
2022/10/01 09:30:01;;;;;;;9.00;4.47;;;;;;;;;;5033991;28;20187;-68
2022/10/01 09:32:33;;;;;;;6.57;4.60;;;;;;;;;;5033924;28;20226;-68
2022/10/01 09:35:04;;;;;;;5.13;4.17;;;;;;;;;;5016235;28;20171;-69
2022/10/01 09:37:40;;;;;;;6.10;4.17;;;;;;;;;;5016417;28;20225;-69
2022/10/01 09:40:25;;;;;;;5.70;4.07;;;;;;;;;;5056182;23;20225;-69
2022/10/01 09:42:51;;;;;;;48.33;34.87;;;;;;;;;;5036261;28;20178;-68
2022/10/01 09:45:17;;;;;;;7.63;4.90;;;;;;;;;;5053764;28;20189;-69
2022/10/01 09:47:46;;;;;;;11.53;8.10;;;;;;;;;;5054340;28;20269;-69
2022/10/01 09:50:15;;;;;;;14.80;11.07;;;;;;;;;;5054097;28;20206;-69
2022/10/01 09:52:41;;;;;;;10.10;5.97;;;;;;;;;;5053773;28;20236;-69
2022/10/01 09:55:19;;;;;;;7.67;5.30;;;;;;;;;;5054431;28;20179;-69
2022/10/01 09:57:51;;;;;;;23.13;17.97;;;;;;;;;;5036157;28;20261;-68
2022/10/01 10:00:18;;;;;;;12.10;8.47;;;;;;;;;;5053309;28;20277;-68
2022/10/01 10:02:45;;;;;;;27.90;20.30;;;;;;;;;;5053293;28;20179;-67
2022/10/01 10:05:19;;;;;;;11.37;6.33;;;;;;;;;;5053370;28;20174;-68
2022/10/01 10:07:46;;;;;;;30.33;17.47;;;;;;;;;;5053417;28;20194;-68
2022/10/01 10:10:20;;;;;;;16.47;10.93;;;;;;;;;;5053726;28;20202;-68
2022/10/01 10:12:46;;;;;;;30.17;21.70;;;;;;;;;;5035365;28;20217;-68
2022/10/01 10:15:15;;;;;;;9.73;6.13;;;;;;;;;;5053324;28;20183;-68
2022/10/01 10:17:43;;;;;;;13.73;9.53;;;;;;;;;;5035322;28;20269;-68
2022/10/01 10:20:21;;;;;;;7.57;6.07;;;;;;;;;;5035065;28;20209;-67
2022/10/01 10:22:47;;;;;;;7.83;7.10;;;;;;;;;;5035219;28;20174;-67
2022/10/01 10:25:19;;;;;;;8.50;5.40;;;;;;;;;;5053212;28;20685;-68
2022/10/01 10:27:54;;;;;;;10.27;7.60;;;;;;;;;;5053604;28;20692;-68
2022/10/01 10:30:20;;;;;;;4.37;3.93;;;;;;;;;;5053278;28;20217;-68
2022/10/01 10:32:47;;;;;;;7.03;5.13;;;;;;;;;;5053000;28;20198;-68
2022/10/01 10:35:19;;;;;;;9.90;7.93;;;;;;;;;;5035177;28;20178;-68
2022/10/01 10:37:47;;;;;;;8.27;6.07;;;;;;;;;;5035047;28;20209;-66
2022/10/01 10:40:16;;;;;;;26.93;15.77;;;;;;;;;;5052911;28;20585;-68
2022/10/01 10:42:46;;;;;;;61.70;29.13;;;;;;;;;;5053224;28;20202;-69
2022/10/01 10:45:19;;;;;;;79.27;30.03;;;;;;;;;;5052940;28;20538;-68
2022/10/01 10:47:47;;;;;;;38.60;15.07;;;;;;;;;;5052894;28;20666;-68
2022/10/01 10:50:42;;;;;;;254.70;85.63;;;;;;;;;;5052812;28;20202;-69
2022/10/01 10:53:18;;;;;;;37.57;12.93;;;;;;;;;;5014643;28;20233;-68
2022/10/01 10:55:52;;;;;;;201.87;64.87;;;;;;;;;;5053012;28;20181;-66
2022/10/01 10:58:18;;;;;;;57.20;26.50;;;;;;;;;;5056801;28;20655;-68
2022/10/01 11:00:46;;;;;;;15.37;7.80;;;;;;;;;;5056718;28;20198;-67
2022/10/01 11:03:14;;;;;;;19.70;9.33;;;;;;;;;;5056985;28;20171;-70
2022/10/01 11:05:41;;;;;;;11.17;5.53;;;;;;;;;;5057171;28;20545;-67
2022/10/01 11:08:10;;;;;;;11.17;4.17;;;;;;;;;;5056624;28;20175;-67
2022/10/01 11:10:45;;;;;;;9.23;4.50;;;;;;;;;;5038672;28;20225;-68
2022/10/01 11:13:33;;;;;;;10.40;5.47;;;;;;;;;;5056702;28;20198;-68
2022/10/01 11:16:18;;;;;;;16.53;7.70;;;;;;;;;;5056205;28;20190;-68
2022/10/01 11:18:57;;;;;;;9.33;4.13;;;;;;;;;;5038468;28;20178;-66
2022/10/01 11:21:32;;;;;;;10.33;5.50;;;;;;;;;;5038552;28;20209;-67
2022/10/01 11:24:07;;;;;;;13.50;7.07;;;;;;;;;;5056693;28;20178;-68
2022/10/01 11:26:44;;;;;;;20.97;13.27;;;;;;;;;;5056403;28;20173;-68
2022/10/01 11:29:34;;;;;;;13.17;4.07;;;;;;;;;;5056448;28;20150;-67
2022/10/01 11:32:01;;;;;;;11.43;4.63;;;;;;;;;;5056514;28;20218;-68
2022/10/01 11:34:36;;;;;;;14.73;7.80;;;;;;;;;;5059466;28;20224;-68
2022/10/01 11:37:22;;;;;;;10.03;5.30;;;;;;;;;;5058663;28;20190;-68
2022/10/01 11:39:50;;;;;;;10.20;4.83;;;;;;;;;;5056079;28;20655;-68
2022/10/01 11:42:19;;;;;;;11.17;4.83;;;;;;;;;;5056617;28;20183;-68
2022/10/01 11:44:48;;;;;;;7.90;4.23;;;;;;;;;;5038148;28;20189;-67
2022/10/01 11:47:22;;;;;;;10.77;4.47;;;;;;;;;;5055932;28;20288;-68
2022/10/01 11:49:56;;;;;;;12.47;4.93;;;;;;;;;;5055959;28;20201;-67
2022/10/01 11:52:22;;;;;;;13.30;7.13;;;;;;;;;;5056138;28;20241;-68
2022/10/01 11:54:54;;;;;;;8.33;4.70;;;;;;;;;;5055958;28;20210;-68
2022/10/01 12:00:07;;;;;;;9.73;4.87;;;;;;;;;;5056023;28;20209;-65
2022/10/01 12:02:39;;;;;;;10.57;5.07;;;;;;;;;;5056278;28;20185;-67
2022/10/01 12:05:07;;;;;;;13.67;5.90;;;;;;;;;;5056601;28;20167;-67
2022/10/01 12:08:02;;;;;;;9.90;5.83;;;;;;;;;;5056754;28;20175;-67
2022/10/01 12:10:29;;;;;;;14.43;8.63;;;;;;;;;;5013507;28;20267;-68
2022/10/01 12:13:03;;;;;;;12.47;7.20;;;;;;;;;;5037885;28;20586;-67
2022/10/01 12:15:31;;;;;;;25.47;11.90;;;;;;;;;;5055600;28;20168;-68
2022/10/01 12:18:16;;;;;;;36.07;19.20;;;;;;;;;;5057095;28;20532;-68
2022/10/01 12:20:53;;;;;;;32.07;13.63;;;;;;;;;;5055988;28;20205;-67
2022/10/01 12:23:25;;;;;;;45.17;23.47;;;;;;;;;;5055750;28;20169;-67
2022/10/01 12:26:00;;;;;;;25.20;14.53;;;;;;;;;;5055285;28;20178;-67
2022/10/01 12:28:40;;;;;;;16.80;10.30;;;;;;;;;;5055185;28;20642;-67
2022/10/01 12:31:11;;;;;;;26.70;12.77;;;;;;;;;;5055272;28;20339;-68
2022/10/01 12:33:50;;;;;;;11.03;4.50;;;;;;;;;;5055675;28;20163;-71
2022/10/01 12:36:35;;;;;;;9.90;3.60;;;;;;;;;;5055479;28;20174;-72
2022/10/01 12:39:10;;;;;;;6.37;2.83;;;;;;;;;;5037244;28;20664;-68
2022/10/01 12:41:45;;;;;;;11.00;3.80;;;;;;;;;;5054857;28;20201;-68
2022/10/01 12:44:14;;;;;;;10.63;2.90;;;;;;;;;;5055422;28;20162;-74
2022/10/01 12:46:46;;;;;;;8.53;2.30;;;;;;;;;;5055073;28;20186;-69
2022/10/01 12:49:11;;;;;;;11.63;3.70;;;;;;;;;;5054999;28;20174;-68
2022/10/01 12:51:40;;;;;;;10.73;3.17;;;;;;;;;;5055276;28;20213;-69
2022/10/01 12:54:20;;;;;;;10.67;3.00;;;;;;;;;;5055260;28;20225;-68
2022/10/01 12:56:52;;;;;;;9.30;5.60;;;;;;;;;;5055510;28;20155;-69
2022/10/01 12:59:31;;;;;;;11.47;4.40;;;;;;;;;;5055326;28;20205;-68
2022/10/01 13:02:12;;;;;;;8.63;3.07;;;;;;;;;;5054938;28;20254;-68
2022/10/01 13:05:01;;;;;;;6.23;3.30;;;;;;;;;;5054529;28;20249;-68
2022/10/01 13:07:45;;;;;;;9.23;3.00;;;;;;;;;;5036618;28;20178;-69
2022/10/01 13:10:30;;;;;;;10.93;3.10;;;;;;;;;;5054388;28;20201;-68
2022/10/01 13:13:03;;;;;;;11.87;3.73;;;;;;;;;;5036445;28;20206;-68
2022/10/01 13:15:39;;;;;;;7.83;3.03;;;;;;;;;;5036347;28;20181;-69
2022/10/01 13:18:13;;;;;;;7.20;3.33;;;;;;;;;;5054392;28;20159;-68
2022/10/01 13:21:04;;;;;;;12.60;3.40;;;;;;;;;;5036299;28;20202;-68
2022/10/01 13:23:56;;;;;;;26.47;13.97;;;;;;;;;;5040711;28;20193;-68
2022/10/01 13:26:41;;;;;;;11.37;3.33;;;;;;;;;;5036486;28;20258;-69
2022/10/01 13:29:25;;;;;;;7.57;4.30;;;;;;;;;;5054521;28;20190;-69
2022/10/01 13:31:56;;;;;;;11.53;5.43;;;;;;;;;;5036405;28;20217;-70
2022/10/01 13:34:42;;;;;;;13.03;4.47;;;;;;;;;;5054636;28;20170;-67
2022/10/01 13:37:11;;;;;;;10.47;5.17;;;;;;;;;;5055064;28;20166;-69
2022/10/01 13:39:40;;;;;;;16.73;3.93;;;;;;;;;;5054208;28;20201;-69
2022/10/01 13:42:10;;;;;;;10.07;4.13;;;;;;;;;;5054136;28;20170;-69
2022/10/01 13:44:36;;;;;;;10.17;3.83;;;;;;;;;;5035822;28;20193;-68
2022/10/01 13:47:05;;;;;;;11.00;3.70;;;;;;;;;;5053841;28;20179;-69
2022/10/01 13:49:33;;;;;;;11.83;3.47;;;;;;;;;;5054001;28;20195;-69
2022/10/01 13:52:01;;;;;;;7.20;2.63;;;;;;;;;;5054087;28;20198;-68
2022/10/01 13:54:34;;;;;;;12.90;3.27;;;;;;;;;;5035824;28;20536;-68
2022/10/01 13:57:22;;;;;;;8.83;3.60;;;;;;;;;;5035660;28;20174;-69
2022/10/01 13:59:57;;;;;;;10.63;2.90;;;;;;;;;;5053858;28;20206;-69
2022/10/01 14:02:34;;;;;;;7.67;2.97;;;;;;;;;;5053970;28;20170;-68
2022/10/01 14:05:07;;;;;;;9.83;3.03;;;;;;;;;;5053636;28;20551;-69
2022/10/01 14:07:35;;;;;;;10.73;3.73;;;;;;;;;;5035695;28;20224;-69
2022/10/01 14:10:01;;;;;;;10.50;3.00;;;;;;;;;;5053529;28;20198;-69
2022/10/01 14:18:06;;;;;;;7.77;2.40;;;;;;;;;;5054405;28;20167;-69
2022/10/01 14:20:34;;;;;;;7.23;2.40;;;;;;;;;;5053452;28;20254;-69
2022/10/01 14:23:03;;;;;;;9.30;2.60;;;;;;;;;;5053610;28;20182;-69
2022/10/01 14:25:51;;;;;;;10.00;2.57;;;;;;;;;;5035669;28;20186;-69
2022/10/01 14:28:32;;;;;;;7.67;2.80;;;;;;;;;;5053634;28;20178;-69
2022/10/01 14:31:16;;;;;;;6.93;2.57;;;;;;;;;;5053279;28;20597;-69
2022/10/01 14:33:58;;;;;;;6.57;2.50;;;;;;;;;;5035672;28;20205;-70
2022/10/01 14:36:27;;;;;;;9.10;3.03;;;;;;;;;;5054185;28;20189;-69
2022/10/01 14:39:02;;;;;;;9.07;2.77;;;;;;;;;;5035667;28;20178;-69
2022/10/01 14:41:33;;;;;;;9.73;3.20;;;;;;;;;;5053764;28;20251;-69
2022/10/01 14:43:59;;;;;;;9.17;2.53;;;;;;;;;;5054091;28;20198;-73
2022/10/01 14:46:26;;;;;;;11.90;2.70;;;;;;;;;;5053321;28;20619;-68
2022/10/01 14:48:59;;;;;;;9.57;2.63;;;;;;;;;;5053279;28;20179;-68
2022/10/01 14:51:27;;;;;;;8.60;3.53;;;;;;;;;;5034934;28;20206;-68
2022/10/01 14:53:53;;;;;;;8.33;2.33;;;;;;;;;;5053054;28;20181;-68
2022/10/01 14:56:19;;;;;;;7.47;2.60;;;;;;;;;;5052976;28;20700;-67
2022/10/01 14:58:52;;;;;;;10.17;2.80;;;;;;;;;;5052832;28;20174;-67
2022/10/01 15:01:22;;;;;;;7.33;2.53;;;;;;;;;;5053373;28;20206;-67